Time;durP1;ratioP1;P1;durP2;ratioP2;P2;SDS_P1;SDS_P2;PMS_P1;PMS_P2;Temp;Humidity;BMP_temperature;BMP_pressure;BME280_temperature;BME280_humidity;BME280_pressure;Samples;Min_cycle;Max_cycle;Signal;HPM_P1;HPM_P2
2021/09/17 00:01:32;;;;;;;2.23;1.83;;;16.30;99.90;;;;;;5128370;28;20230;-71
2021/09/17 00:03:59;;;;;;;2.00;1.77;;;16.30;99.90;;;;;;5127259;27;20675;-71
2021/09/17 00:06:26;;;;;;;3.73;2.10;;;16.30;99.90;;;;;;5131613;27;20261;-71
2021/09/17 00:08:52;;;;;;;2.27;1.70;;;16.20;99.90;;;;;;5132325;27;20244;-71
2021/09/17 00:11:19;;;;;;;2.63;2.00;;;16.30;99.90;;;;;;5132447;27;20209;-71
2021/09/17 00:13:47;;;;;;;4.13;1.73;;;16.30;99.90;;;;;;5132371;27;20202;-71
2021/09/17 00:16:15;;;;;;;3.07;1.87;;;16.30;99.90;;;;;;5132312;27;20206;-71
2021/09/17 00:18:41;;;;;;;2.37;1.40;;;16.30;99.90;;;;;;5132099;27;20197;-71
2021/09/17 00:21:08;;;;;;;3.30;1.70;;;16.40;99.90;;;;;;5132300;27;20600;-71
2021/09/17 00:23:35;;;;;;;2.50;1.73;;;16.30;99.90;;;;;;5132054;27;20225;-71
2021/09/17 00:26:01;;;;;;;2.23;2.00;;;16.30;99.90;;;;;;5132137;27;20270;-71
2021/09/17 00:28:28;;;;;;;4.77;1.93;;;16.30;99.90;;;;;;5132050;27;20274;-71
2021/09/17 00:30:56;;;;;;;3.67;2.20;;;16.40;99.90;;;;;;5131731;27;20198;-71
2021/09/17 00:33:24;;;;;;;2.07;1.80;;;16.30;99.90;;;;;;5131819;27;20201;-72
2021/09/17 00:35:51;;;;;;;4.77;1.73;;;16.30;99.90;;;;;;5131488;27;20202;-72
2021/09/17 00:38:17;;;;;;;2.67;1.47;;;16.30;99.90;;;;;;5132185;27;20213;-72
2021/09/17 00:40:44;;;;;;;3.37;1.83;;;16.30;99.90;;;;;;5131683;27;20205;-72
2021/09/17 00:43:11;;;;;;;3.80;2.30;;;16.40;99.90;;;;;;5131880;27;20264;-72
2021/09/17 00:45:37;;;;;;;2.07;1.67;;;16.40;99.90;;;;;;5131501;27;20230;-72
2021/09/17 00:48:05;;;;;;;3.13;1.87;;;16.30;99.90;;;;;;5131787;27;20545;-72
2021/09/17 00:50:33;;;;;;;2.50;1.70;;;16.40;99.90;;;;;;5131139;27;20236;-72
2021/09/17 00:53:00;;;;;;;3.57;1.57;;;16.40;99.90;;;;;;5131675;27;20239;-72
2021/09/17 00:55:26;;;;;;;2.60;1.70;;;16.40;99.90;;;;;;5131472;27;20261;-72
2021/09/17 00:57:53;;;;;;;3.00;1.77;;;16.40;99.90;;;;;;5131352;27;20229;-72
2021/09/17 01:00:20;;;;;;;2.93;1.93;;;16.40;99.90;;;;;;5131212;27;20214;-73
2021/09/17 01:02:46;;;;;;;1.50;1.20;;;16.40;99.90;;;;;;5129033;27;20739;-73
2021/09/17 01:05:14;;;;;;;1.67;1.57;;;16.40;99.90;;;;;;5130273;27;20736;-73
2021/09/17 01:07:43;;;;;;;2.73;1.90;;;16.40;99.90;;;;;;5131018;27;20255;-74
2021/09/17 01:10:11;;;;;;;4.97;1.77;;;16.30;99.90;;;;;;5131278;27;20241;-74
2021/09/17 01:12:39;;;;;;;2.70;1.60;;;16.30;99.90;;;;;;5131146;27;20255;-74
2021/09/17 01:15:07;;;;;;;5.80;2.13;;;16.30;99.90;;;;;;5131187;27;20201;-74
2021/09/17 01:17:36;;;;;;;2.97;1.43;;;16.30;99.90;;;;;;5131704;27;20266;-73
2021/09/17 01:20:03;;;;;;;1.87;1.43;;;16.20;99.90;;;;;;5131645;27;20202;-74
2021/09/17 01:22:31;;;;;;;2.40;1.60;;;16.30;99.90;;;;;;5131156;27;20221;-74
2021/09/17 01:24:58;;;;;;;2.53;1.50;;;16.30;99.90;;;;;;5131095;27;20201;-74
2021/09/17 01:27:25;;;;;;;1.90;1.70;;;16.30;99.90;;;;;;5131355;27;20694;-74
2021/09/17 01:29:52;;;;;;;2.43;1.50;;;16.30;99.90;;;;;;5129932;27;20259;-74
2021/09/17 01:32:19;;;;;;;1.43;1.33;;;16.20;99.90;;;;;;5129391;27;20624;-74
2021/09/17 01:34:46;;;;;;;1.67;1.50;;;16.20;99.90;;;;;;5130815;27;20232;-72
2021/09/17 01:37:13;;;;;;;6.10;1.90;;;16.30;99.90;;;;;;5130781;27;20205;-73
2021/09/17 01:39:41;;;;;;;1.93;1.37;;;16.30;99.90;;;;;;5130657;27;20274;-72
2021/09/17 01:42:07;;;;;;;5.50;1.77;;;16.30;99.90;;;;;;5130651;27;20363;-73
2021/09/17 01:44:37;;;;;;;2.50;1.53;;;16.30;99.90;;;;;;5130344;27;20286;-72
2021/09/17 01:47:04;;;;;;;2.70;1.60;;;16.30;99.90;;;;;;5130093;27;20686;-74
2021/09/17 01:49:32;;;;;;;3.13;1.73;;;16.20;99.90;;;;;;5130186;27;20281;-74
2021/09/17 01:51:58;;;;;;;8.03;1.97;;;16.20;99.90;;;;;;5130024;27;20764;-73
2021/09/17 01:54:26;;;;;;;2.73;1.50;;;16.20;99.90;;;;;;5130122;27;20253;-73
2021/09/17 01:56:54;;;;;;;2.83;1.50;;;16.20;99.90;;;;;;5129711;27;20731;-74
2021/09/17 01:59:21;;;;;;;2.93;1.43;;;16.20;99.90;;;;;;5129725;27;20255;-74
2021/09/17 02:01:47;;;;;;;1.87;1.60;;;16.20;99.90;;;;;;5130101;27;20278;-74
2021/09/17 02:04:14;;;;;;;3.00;1.70;;;16.20;99.90;;;;;;5130392;27;20205;-74
2021/09/17 02:06:41;;;;;;;3.13;1.57;;;16.30;99.90;;;;;;5129917;27;20205;-74
2021/09/17 02:09:07;;;;;;;2.63;1.37;;;16.30;99.90;;;;;;5130432;27;20827;-73
2021/09/17 02:11:34;;;;;;;4.13;1.77;;;16.20;99.90;;;;;;5130204;27;20206;-74
2021/09/17 02:14:02;;;;;;;5.90;1.63;;;16.20;99.90;;;;;;5129812;27;20237;-74
2021/09/17 02:16:29;;;;;;;4.87;1.60;;;16.20;99.90;;;;;;5130312;27;20622;-74
2021/09/17 02:18:56;;;;;;;3.07;1.73;;;16.20;99.90;;;;;;5129610;27;20228;-74
2021/09/17 02:21:23;;;;;;;1.67;1.57;;;16.20;99.90;;;;;;5129669;27;20229;-74
2021/09/17 02:23:50;;;;;;;5.90;1.63;;;16.20;99.90;;;;;;5129649;27;20233;-73
2021/09/17 02:26:18;;;;;;;3.00;1.60;;;16.10;99.90;;;;;;5129814;27;20205;-73
2021/09/17 02:28:45;;;;;;;2.97;1.60;;;16.20;99.90;;;;;;5129173;27;20221;-74
2021/09/17 02:31:13;;;;;;;3.57;1.23;;;16.10;99.90;;;;;;5129671;27;20270;-74
2021/09/17 02:33:39;;;;;;;3.27;1.87;;;16.20;99.90;;;;;;5129338;27;20679;-75
2021/09/17 02:36:06;;;;;;;2.80;1.67;;;16.10;99.90;;;;;;5129749;27;20210;-75
2021/09/17 02:38:34;;;;;;;1.80;1.60;;;16.20;99.90;;;;;;5129778;27;20233;-75
2021/09/17 02:41:00;;;;;;;1.57;1.47;;;16.10;99.90;;;;;;5129717;27;20201;-75
2021/09/17 02:43:27;;;;;;;4.27;1.73;;;16.10;99.90;;;;;;5128767;27;20318;-75
2021/09/17 02:45:54;;;;;;;4.10;1.60;;;16.00;99.90;;;;;;5129877;27;20258;-76
2021/09/17 02:48:22;;;;;;;1.63;1.43;;;16.00;99.90;;;;;;5129702;27;20209;-75
2021/09/17 02:50:48;;;;;;;2.37;1.70;;;16.00;99.90;;;;;;5129358;27;20264;-73
2021/09/17 02:53:15;;;;;;;1.70;1.60;;;16.00;99.90;;;;;;5129545;27;20249;-74
2021/09/17 02:55:42;;;;;;;2.40;1.47;;;15.90;99.90;;;;;;5129732;27;20254;-74
2021/09/17 02:58:08;;;;;;;3.33;1.60;;;15.90;99.90;;;;;;5129108;27;20273;-74
2021/09/17 03:00:37;;;;;;;3.63;1.60;;;15.80;99.90;;;;;;5128913;28;20233;-74
2021/09/17 03:03:03;;;;;;;1.90;1.20;;;15.80;99.90;;;;;;5128925;28;20227;-74
2021/09/17 03:05:31;;;;;;;1.50;1.40;;;15.80;99.90;;;;;;5129185;28;20240;-74
2021/09/17 03:07:58;;;;;;;1.80;1.40;;;15.80;99.90;;;;;;5129074;27;20614;-74
2021/09/17 03:10:24;;;;;;;3.97;2.30;;;15.90;99.90;;;;;;5128310;28;20209;-74
2021/09/17 03:12:51;;;;;;;3.13;2.70;;;15.80;99.90;;;;;;5128973;27;20205;-74
2021/09/17 03:15:17;;;;;;;3.23;3.00;;;15.90;99.90;;;;;;5129162;27;20241;-74
2021/09/17 03:17:44;;;;;;;2.50;1.60;;;15.90;99.90;;;;;;5129027;28;20670;-74
2021/09/17 03:20:12;;;;;;;2.10;1.47;;;15.90;99.90;;;;;;5129401;27;20613;-74
2021/09/17 03:22:40;;;;;;;2.30;1.40;;;15.90;99.90;;;;;;5128863;27;20805;-75
2021/09/17 03:25:08;;;;;;;2.50;1.53;;;15.80;99.90;;;;;;5129104;28;20227;-74
2021/09/17 03:27:34;;;;;;;2.03;1.83;;;15.80;99.90;;;;;;5129453;27;20244;-73
2021/09/17 03:30:02;;;;;;;2.33;1.77;;;15.90;99.90;;;;;;5129043;28;20225;-73
2021/09/17 03:32:28;;;;;;;2.30;1.50;;;15.90;99.90;;;;;;5129426;28;20205;-73
2021/09/17 03:34:55;;;;;;;1.73;1.60;;;15.90;99.90;;;;;;5129025;27;20202;-73
2021/09/17 03:37:22;;;;;;;3.03;1.50;;;15.90;99.90;;;;;;5129123;28;20214;-73
2021/09/17 03:39:50;;;;;;;3.03;1.47;;;15.80;99.90;;;;;;5129545;27;20262;-73
2021/09/17 03:42:16;;;;;;;1.67;1.33;;;15.80;99.90;;;;;;5132947;27;20225;-73
2021/09/17 03:44:43;;;;;;;3.17;1.33;;;15.80;99.90;;;;;;5132705;27;20266;-73
2021/09/17 03:47:10;;;;;;;1.83;1.00;;;15.70;99.90;;;;;;5132478;27;20448;-73
2021/09/17 03:49:36;;;;;;;2.10;1.23;;;15.70;99.90;;;;;;5132713;27;20241;-72
2021/09/17 03:52:03;;;;;;;3.30;1.27;;;15.70;99.90;;;;;;5132365;27;20587;-73
2021/09/17 03:54:30;;;;;;;2.27;1.33;;;15.60;99.90;;;;;;5132508;27;20233;-73
2021/09/17 03:56:59;;;;;;;1.13;0.97;;;15.60;99.90;;;;;;5132033;27;20237;-73
2021/09/17 03:59:26;;;;;;;3.27;1.47;;;15.60;99.90;;;;;;5132228;27;20648;-73
2021/09/17 04:01:53;;;;;;;2.70;1.23;;;15.50;99.90;;;;;;5132438;27;20197;-73
2021/09/17 04:04:19;;;;;;;3.00;1.30;;;15.50;99.90;;;;;;5132560;27;20226;-73
2021/09/17 04:06:46;;;;;;;3.03;1.50;;;15.40;99.90;;;;;;5132856;27;20213;-73
2021/09/17 04:09:14;;;;;;;1.97;1.20;;;15.40;99.90;;;;;;5132713;27;20296;-73
2021/09/17 04:11:40;;;;;;;3.47;1.23;;;15.40;99.90;;;;;;5132325;27;20306;-73
2021/09/17 04:14:08;;;;;;;1.23;1.07;;;15.40;99.90;;;;;;5132276;27;20262;-73
2021/09/17 04:16:35;;;;;;;2.30;1.17;;;15.30;99.90;;;;;;5132190;27;20258;-73
2021/09/17 04:19:01;;;;;;;1.80;1.17;;;15.40;99.90;;;;;;5132057;27;20206;-73
2021/09/17 04:21:28;;;;;;;1.40;1.10;;;15.40;99.90;;;;;;5132159;27;20205;-73
2021/09/17 04:23:55;;;;;;;1.73;0.90;;;15.40;99.90;;;;;;5131902;27;20274;-75
2021/09/17 04:26:23;;;;;;;2.70;1.40;;;15.30;99.90;;;;;;5132125;27;20269;-74
2021/09/17 04:28:50;;;;;;;3.33;1.60;;;15.30;99.90;;;;;;5131734;27;20256;-75
2021/09/17 04:31:18;;;;;;;2.43;1.17;;;15.30;99.90;;;;;;5131868;27;20209;-74
2021/09/17 04:33:45;;;;;;;4.10;2.73;;;15.40;99.90;;;;;;5131970;27;20251;-74
2021/09/17 04:36:12;;;;;;;3.80;1.97;;;15.30;99.90;;;;;;5132318;27;20310;-74
2021/09/17 04:38:38;;;;;;;1.50;1.27;;;15.30;99.90;;;;;;5132096;27;20197;-74
2021/09/17 04:41:05;;;;;;;1.30;1.30;;;15.30;99.90;;;;;;5132029;27;20213;-73
2021/09/17 04:43:31;;;;;;;5.33;1.60;;;15.30;99.90;;;;;;5132300;27;20233;-73
2021/09/17 04:45:58;;;;;;;1.40;1.30;;;15.20;99.90;;;;;;5131980;27;20262;-73
2021/09/17 04:48:26;;;;;;;1.23;1.13;;;15.30;99.90;;;;;;5131468;27;20209;-73
2021/09/17 04:50:53;;;;;;;1.50;1.17;;;15.30;99.90;;;;;;5131098;27;20225;-72
2021/09/17 04:53:19;;;;;;;1.60;1.00;;;15.40;99.90;;;;;;5131264;27;20784;-72
2021/09/17 04:55:47;;;;;;;1.90;0.80;;;15.40;99.90;;;;;;5131199;27;20202;-72
2021/09/17 04:58:14;;;;;;;1.47;1.03;;;15.40;99.90;;;;;;5131062;27;20229;-72
2021/09/17 05:00:40;;;;;;;2.60;0.83;;;15.30;99.90;;;;;;5131515;27;20267;-72
2021/09/17 05:03:07;;;;;;;0.93;0.90;;;15.30;99.90;;;;;;5131284;27;20331;-72
2021/09/17 05:05:35;;;;;;;0.90;0.80;;;15.40;99.90;;;;;;5131067;27;20202;-72
2021/09/17 05:08:02;;;;;;;0.67;0.40;;;15.40;99.90;;;;;;5131199;27;20561;-72
2021/09/17 05:10:29;;;;;;;1.17;0.67;;;15.40;99.90;;;;;;5131255;27;20583;-72
2021/09/17 05:12:55;;;;;;;1.03;0.60;;;15.40;99.90;;;;;;5131198;27;20241;-73
2021/09/17 05:15:22;;;;;;;1.37;0.70;;;15.40;99.90;;;;;;5130233;27;20274;-73
2021/09/17 05:17:49;;;;;;;0.80;0.60;;;15.40;99.90;;;;;;5131253;27;20197;-71
2021/09/17 05:20:17;;;;;;;1.13;0.53;;;15.40;99.90;;;;;;5131404;27;20227;-71
2021/09/17 05:22:45;;;;;;;1.30;0.90;;;15.50;99.90;;;;;;5130967;27;20224;-71
2021/09/17 05:25:12;;;;;;;2.10;1.37;;;15.50;99.90;;;;;;5130988;27;20224;-71
2021/09/17 05:27:39;;;;;;;1.20;1.03;;;15.50;99.90;;;;;;5130181;27;20632;-71
2021/09/17 05:30:07;;;;;;;1.67;0.70;;;15.40;99.90;;;;;;5130633;27;20209;-73
2021/09/17 05:32:34;;;;;;;3.47;0.87;;;15.50;99.90;;;;;;5130728;27;20226;-73
2021/09/17 05:35:01;;;;;;;1.00;0.83;;;15.40;99.90;;;;;;5130406;27;20261;-73
2021/09/17 05:37:27;;;;;;;1.30;0.63;;;15.50;99.90;;;;;;5130220;27;20546;-74
2021/09/17 05:39:55;;;;;;;3.83;0.57;;;15.50;99.90;;;;;;5130326;27;20629;-74
2021/09/17 05:42:22;;;;;;;2.60;0.67;;;15.50;99.90;;;;;;5130550;27;20209;-74
2021/09/17 05:44:48;;;;;;;3.10;0.57;;;15.60;99.90;;;;;;5130147;27;20260;-74
2021/09/17 05:47:15;;;;;;;1.67;0.33;;;15.60;99.90;;;;;;5130166;27;20574;-73
2021/09/17 05:49:42;;;;;;;0.60;0.60;;;15.60;99.90;;;;;;5130596;27;20209;-73
2021/09/17 05:52:09;;;;;;;1.90;0.30;;;15.50;99.90;;;;;;5130603;27;20212;-74
2021/09/17 05:54:37;;;;;;;2.13;0.50;;;15.60;99.90;;;;;;5130056;27;20225;-74
2021/09/17 05:57:06;;;;;;;2.97;0.43;;;15.60;99.90;;;;;;5129976;27;20787;-74
2021/09/17 05:59:32;;;;;;;1.70;0.50;;;15.60;99.90;;;;;;5130307;27;20247;-73
2021/09/17 06:01:59;;;;;;;1.60;0.40;;;15.40;99.90;;;;;;5129764;27;20683;-73
2021/09/17 06:04:26;;;;;;;0.60;0.60;;;15.50;99.90;;;;;;5129317;27;20692;-72
2021/09/17 06:06:53;;;;;;;0.60;0.40;;;15.50;99.90;;;;;;5130278;27;20229;-73
2021/09/17 06:09:19;;;;;;;2.83;0.63;;;15.60;99.90;;;;;;5130171;27;20202;-73
2021/09/17 06:11:46;;;;;;;2.60;0.50;;;15.50;99.90;;;;;;5130226;27;20206;-73
2021/09/17 06:14:16;;;;;;;2.83;0.57;;;15.50;99.90;;;;;;5129671;27;20622;-73
2021/09/17 06:16:43;;;;;;;1.43;0.60;;;15.50;99.90;;;;;;5130398;27;20289;-73
2021/09/17 06:19:10;;;;;;;1.10;0.70;;;15.60;99.90;;;;;;5129726;27;20258;-74
2021/09/17 06:21:37;;;;;;;1.60;0.40;;;15.60;99.90;;;;;;5129946;27;20212;-74
2021/09/17 06:24:04;;;;;;;0.40;0.30;;;15.60;99.90;;;;;;5129605;27;20755;-73
2021/09/17 06:26:31;;;;;;;0.93;0.30;;;15.60;99.90;;;;;;5129863;27;20208;-73
2021/09/17 06:28:59;;;;;;;1.43;0.50;;;15.70;99.90;;;;;;5129237;27;20233;-73
2021/09/17 06:31:28;;;;;;;3.13;0.40;;;15.60;99.90;;;;;;5130034;27;20197;-74
2021/09/17 06:33:54;;;;;;;1.57;0.60;;;15.50;99.90;;;;;;5130140;27;20209;-74
2021/09/17 06:36:21;;;;;;;1.23;0.47;;;15.40;99.90;;;;;;5130169;27;20220;-74
2021/09/17 06:38:48;;;;;;;1.37;0.60;;;15.40;99.90;;;;;;5130004;27;20541;-74
2021/09/17 06:41:14;;;;;;;1.73;0.40;;;15.50;99.90;;;;;;5129673;27;20202;-74
2021/09/17 06:43:41;;;;;;;1.07;0.40;;;15.40;99.90;;;;;;5129717;27;20236;-74
2021/09/17 06:46:08;;;;;;;0.83;0.53;;;15.30;99.90;;;;;;5129263;27;20260;-74
2021/09/17 06:48:36;;;;;;;0.77;0.40;;;15.40;99.90;;;;;;5129400;27;20742;-74
2021/09/17 06:51:03;;;;;;;1.80;0.50;;;15.30;99.90;;;;;;5129360;27;20656;-72
2021/09/17 06:53:30;;;;;;;2.20;0.50;;;15.30;99.90;;;;;;5128534;27;20314;-72
2021/09/17 06:55:56;;;;;;;1.53;0.50;;;15.30;99.90;;;;;;5129289;27;20229;-72
2021/09/17 06:58:28;;;;;;;1.40;0.60;;;15.30;99.90;;;;;;5129183;27;20233;-72
2021/09/17 07:00:55;;;;;;;1.27;0.60;;;15.40;99.90;;;;;;5129418;27;20194;-72
2021/09/17 07:03:22;;;;;;;0.93;0.40;;;15.40;99.90;;;;;;5129271;28;20233;-72
2021/09/17 07:05:50;;;;;;;1.93;0.40;;;15.40;99.90;;;;;;5129452;28;20233;-73
2021/09/17 07:08:18;;;;;;;0.63;0.43;;;15.40;99.90;;;;;;5128822;27;20258;-72
2021/09/17 07:10:45;;;;;;;0.60;0.30;;;15.40;99.90;;;;;;5129112;28;20201;-72
2021/09/17 07:13:12;;;;;;;0.90;0.50;;;15.40;99.90;;;;;;5129200;28;20205;-73
2021/09/17 07:15:40;;;;;;;2.43;0.50;;;15.40;99.90;;;;;;5132783;27;20202;-73
2021/09/17 07:18:08;;;;;;;1.50;0.40;;;15.40;99.90;;;;;;5133280;27;20233;-72
2021/09/17 07:20:37;;;;;;;2.30;0.30;;;15.50;99.90;;;;;;5132856;27;20201;-77
2021/09/17 07:23:05;;;;;;;1.83;0.40;;;15.50;99.90;;;;;;5132735;27;20727;-73
2021/09/17 07:25:32;;;;;;;1.53;0.47;;;15.50;99.90;;;;;;5132760;27;20274;-73
2021/09/17 07:27:59;;;;;;;2.70;0.70;;;15.50;99.90;;;;;;5116930;27;20664;-73
2021/09/17 07:30:26;;;;;;;0.20;0.20;;;15.50;99.90;;;;;;5108242;28;20241;-73
2021/09/17 07:32:53;;;;;;;1.90;0.30;;;15.60;99.90;;;;;;5108358;28;20224;-73
2021/09/17 07:35:20;;;;;;;0.70;0.57;;;15.60;99.90;;;;;;5108367;28;20695;-74
2021/09/17 07:37:46;;;;;;;1.23;0.40;;;15.60;99.90;;;;;;5108188;28;20298;-74
2021/09/17 07:40:15;;;;;;;2.03;0.40;;;15.60;99.90;;;;;;5108036;28;20712;-73
2021/09/17 07:42:42;;;;;;;0.40;0.40;;;15.70;99.90;;;;;;5108799;28;20214;-74
2021/09/17 07:45:10;;;;;;;1.10;0.43;;;15.80;99.90;;;;;;5108691;28;20230;-74
2021/09/17 07:47:37;;;;;;;0.43;0.30;;;15.90;99.90;;;;;;5116298;27;20672;-74
2021/09/17 07:50:04;;;;;;;0.30;0.30;;;15.90;99.90;;;;;;5125905;27;20278;-74
2021/09/17 07:52:30;;;;;;;2.63;0.50;;;15.90;99.90;;;;;;5128708;27;20229;-74
2021/09/17 07:54:57;;;;;;;3.63;0.47;;;16.00;99.90;;;;;;5128800;27;20322;-74
2021/09/17 07:57:25;;;;;;;0.90;0.33;;;16.10;99.90;;;;;;5128461;27;20317;-74
2021/09/17 07:59:52;;;;;;;1.70;0.33;;;16.00;99.90;;;;;;5119417;27;20293;-74
2021/09/17 08:02:18;;;;;;;0.67;0.10;;;16.10;99.90;;;;;;5128604;27;20210;-74
2021/09/17 08:04:45;;;;;;;0.63;0.30;;;16.00;99.90;;;;;;5129129;27;20286;-74
2021/09/17 08:07:12;;;;;;;0.70;0.47;;;15.90;99.90;;;;;;5132182;27;20209;-73
2021/09/17 08:09:39;;;;;;;2.27;0.27;;;15.90;99.90;;;;;;5131019;27;20250;-73
2021/09/17 08:12:07;;;;;;;0.47;0.33;;;16.00;99.90;;;;;;5131229;27;20255;-73
2021/09/17 08:14:35;;;;;;;1.47;0.10;;;16.00;99.90;;;;;;5132203;27;20205;-73
2021/09/17 08:17:02;;;;;;;1.07;0.67;;;16.00;99.90;;;;;;5131939;27;20625;-73
2021/09/17 08:19:28;;;;;;;3.27;0.37;;;15.90;99.90;;;;;;5132443;27;20213;-73
2021/09/17 08:21:55;;;;;;;0.30;0.20;;;16.00;99.90;;;;;;5131728;27;20727;-73
2021/09/17 08:24:21;;;;;;;0.50;0.20;;;16.00;99.90;;;;;;5132064;27;20245;-73
2021/09/17 08:26:50;;;;;;;1.03;0.23;;;16.10;99.90;;;;;;5131065;27;20667;-74
2021/09/17 08:29:17;;;;;;;0.57;0.40;;;16.00;99.90;;;;;;5131042;27;20261;-74
2021/09/17 08:31:49;;;;;;;0.10;0.10;;;16.00;99.90;;;;;;5131829;27;20201;-73
2021/09/17 08:34:15;;;;;;;1.03;0.20;;;16.00;99.90;;;;;;5131824;27;20229;-73
2021/09/17 08:36:42;;;;;;;1.07;0.40;;;15.90;99.90;;;;;;5131842;27;20285;-73
2021/09/17 08:39:09;;;;;;;0.20;0.20;;;15.90;99.90;;;;;;5131377;27;20668;-73
2021/09/17 08:41:37;;;;;;;0.97;0.50;;;15.90;99.90;;;;;;5131792;27;20296;-73
2021/09/17 08:44:04;;;;;;;0.50;0.30;;;15.90;99.90;;;;;;5131451;27;20249;-73
2021/09/17 08:46:31;;;;;;;0.77;0.30;;;16.00;99.90;;;;;;5131803;27;20241;-73
2021/09/17 08:49:02;;;;;;;0.60;0.27;;;16.10;99.90;;;;;;5131417;27;20244;-74
2021/09/17 08:51:28;;;;;;;1.80;0.27;;;16.00;99.90;;;;;;5131563;27;20221;-73
2021/09/17 08:53:55;;;;;;;0.40;0.23;;;16.10;99.90;;;;;;5130631;27;20279;-74
2021/09/17 08:56:22;;;;;;;0.50;0.30;;;16.10;99.90;;;;;;5131499;27;20208;-73
2021/09/17 08:58:48;;;;;;;1.07;0.60;;;16.00;99.90;;;;;;5131055;27;20274;-73
2021/09/17 09:01:26;;;;;;;1.37;0.70;;;16.00;99.90;;;;;;5130784;27;20651;-74
2021/09/17 09:03:58;;;;;;;1.27;0.53;;;16.00;99.90;;;;;;5131202;27;20201;-73
2021/09/17 09:06:26;;;;;;;0.90;0.60;;;16.00;99.90;;;;;;5131056;27;20208;-73
2021/09/17 09:08:55;;;;;;;0.53;0.33;;;15.90;99.90;;;;;;5129802;27;20621;-74
2021/09/17 09:11:23;;;;;;;0.97;0.40;;;16.00;99.90;;;;;;5122282;27;20635;-74
2021/09/17 09:14:05;;;;;;;1.13;0.50;;;15.90;99.90;;;;;;5126258;27;20260;-73
2021/09/17 09:16:33;;;;;;;0.53;0.30;;;15.90;99.90;;;;;;5119075;27;20211;-74
2021/09/17 09:19:25;;;;;;;0.53;0.37;;;16.00;99.90;;;;;;5122073;27;20765;-74
2021/09/17 09:21:54;;;;;;;1.70;0.50;;;16.10;99.90;;;;;;5128584;27;20202;-74
2021/09/17 09:24:23;;;;;;;1.30;0.60;;;16.00;99.90;;;;;;5128123;27;20265;-74
2021/09/17 09:27:12;;;;;;;2.00;0.20;;;16.10;99.90;;;;;;5120382;27;20686;-73
2021/09/17 09:29:40;;;;;;;1.27;0.70;;;16.00;99.90;;;;;;5114138;27;20194;-73
2021/09/17 09:32:07;;;;;;;1.27;0.33;;;15.90;99.90;;;;;;5118250;27;20247;-74
2021/09/17 09:34:54;;;;;;;1.50;0.30;;;15.90;99.90;;;;;;5115688;27;20281;-73
2021/09/17 09:37:24;;;;;;;0.33;0.30;;;16.00;99.90;;;;;;5116085;27;20194;-75
2021/09/17 09:39:53;;;;;;;1.70;1.60;;;16.10;99.90;;;;;;5117614;27;20209;-75
2021/09/17 09:42:22;;;;;;;1.13;0.37;;;16.00;99.90;;;;;;5120331;27;20201;-75
2021/09/17 09:45:09;;;;;;;0.40;0.27;;;15.90;99.90;;;;;;5115674;27;20226;-75
2021/09/17 09:47:37;;;;;;;0.40;0.40;;;15.90;99.90;;;;;;5109321;27;20201;-75
2021/09/17 09:50:06;;;;;;;0.40;0.30;;;15.90;99.90;;;;;;5119728;27;20221;-75
2021/09/17 09:52:34;;;;;;;0.47;0.40;;;15.80;99.90;;;;;;5118193;27;20306;-74
2021/09/17 09:55:00;;;;;;;2.37;0.40;;;15.90;99.90;;;;;;5116329;27;20251;-74
2021/09/17 09:57:28;;;;;;;1.23;0.43;;;16.10;99.90;;;;;;5115687;27;20885;-75
2021/09/17 09:59:59;;;;;;;2.00;0.40;;;16.20;99.90;;;;;;5120812;27;20206;-75
2021/09/17 10:02:25;;;;;;;0.30;0.30;;;16.30;99.90;;;;;;5117474;27;20744;-75
2021/09/17 10:04:53;;;;;;;0.30;0.30;;;16.40;99.90;;;;;;5118116;27;20225;-74
2021/09/17 10:07:22;;;;;;;1.00;0.23;;;16.30;99.90;;;;;;5116240;27;20208;-74
2021/09/17 10:09:50;;;;;;;0.30;0.30;;;16.30;99.90;;;;;;5115405;27;20198;-75
2021/09/17 10:12:17;;;;;;;1.33;0.50;;;16.40;99.90;;;;;;5115589;27;20229;-75
2021/09/17 10:14:45;;;;;;;0.53;0.20;;;16.40;99.90;;;;;;5114382;27;20207;-75
2021/09/17 10:17:15;;;;;;;1.53;0.20;;;16.40;99.90;;;;;;5114358;27;20233;-75
2021/09/17 10:19:44;;;;;;;0.20;0.20;;;16.40;99.90;;;;;;5114113;27;20254;-75
2021/09/17 10:22:11;;;;;;;1.60;0.20;;;16.40;99.90;;;;;;5116480;27;20283;-74
2021/09/17 10:24:40;;;;;;;0.40;0.20;;;16.30;99.90;;;;;;5120431;27;20222;-74
2021/09/17 10:27:20;;;;;;;0.10;0.10;;;16.40;99.90;;;;;;5118153;27;20224;-74
2021/09/17 10:29:57;;;;;;;0.77;0.40;;;16.30;99.90;;;;;;5119151;27;20336;-75
2021/09/17 10:32:39;;;;;;;0.23;0.23;;;16.40;99.90;;;;;;5118121;27;20186;-74
2021/09/17 10:35:11;;;;;;;0.63;0.20;;;16.60;99.90;;;;;;5116822;27;20315;-74
2021/09/17 10:38:00;;;;;;;0.17;0.17;;;16.70;99.90;;;;;;5111448;27;20206;-75
2021/09/17 10:40:40;;;;;;;0.60;0.20;;;16.80;99.90;;;;;;5116941;27;20190;-74
2021/09/17 10:43:23;;;;;;;0.43;0.30;;;16.90;99.90;;;;;;5116364;27;20201;-74
2021/09/17 10:45:51;;;;;;;1.20;0.20;;;16.90;99.90;;;;;;5116843;27;20237;-75
2021/09/17 10:48:20;;;;;;;0.73;0.20;;;16.90;99.90;;;;;;5110632;27;20383;-75
2021/09/17 10:50:53;;;;;;;0.80;0.20;;;16.80;99.90;;;;;;5113785;27;20352;-75
2021/09/17 10:54:03;;;;;;;0.33;0.20;;;16.90;99.90;;;;;;5107944;27;20249;-74
2021/09/17 10:57:01;;;;;;;0.30;0.30;;;16.70;99.90;;;;;;5111018;27;20666;-75
2021/09/17 10:59:46;;;;;;;0.10;0.10;;;16.60;99.90;;;;;;5115497;27;20281;-75
2021/09/17 11:02:15;;;;;;;1.10;0.50;;;16.60;99.90;;;;;;5112403;28;20210;-74
2021/09/17 11:04:45;;;;;;;1.63;0.90;;;16.60;99.90;;;;;;5117666;28;20233;-75
2021/09/17 11:07:36;;;;;;;1.10;0.37;;;16.60;99.90;;;;;;5111917;28;20201;-74
2021/09/17 11:10:05;;;;;;;0.40;0.10;;;16.60;99.90;;;;;;5113564;28;20217;-74
2021/09/17 11:12:33;;;;;;;0.40;0.30;;;16.60;99.90;;;;;;5112660;28;20193;-74
2021/09/17 11:15:05;;;;;;;1.07;0.23;;;16.60;99.90;;;;;;5116238;28;20198;-74
2021/09/17 11:17:44;;;;;;;0.23;0.23;;;16.70;99.90;;;;;;5116312;28;20622;-74
2021/09/17 11:20:14;;;;;;;2.10;0.17;;;16.70;99.90;;;;;;5114037;28;20254;-75
2021/09/17 11:22:49;;;;;;;0.10;0.10;;;16.80;99.90;;;;;;5111787;28;20230;-74
2021/09/17 11:25:20;;;;;;;3.50;0.40;;;16.80;99.90;;;;;;5114707;28;20702;-74
2021/09/17 11:27:47;;;;;;;2.90;0.30;;;16.90;99.90;;;;;;5119770;27;20627;-74
2021/09/17 11:30:16;;;;;;;0.77;0.20;;;17.00;99.90;;;;;;5112079;28;20537;-74
2021/09/17 11:32:42;;;;;;;1.10;0.23;;;17.00;99.90;;;;;;5117692;28;20617;-74
2021/09/17 11:35:10;;;;;;;1.70;0.47;;;17.00;99.90;;;;;;5113641;28;20238;-74
2021/09/17 11:37:37;;;;;;;0.60;0.20;;;17.10;99.90;;;;;;5115101;28;20625;-74
2021/09/17 11:40:05;;;;;;;0.87;0.43;;;17.10;99.90;;;;;;5115985;28;20234;-74
2021/09/17 11:42:32;;;;;;;0.47;0.13;;;17.20;99.90;;;;;;5116408;28;20197;-74
2021/09/17 11:44:59;;;;;;;0.13;0.10;;;17.30;99.90;;;;;;5113007;28;20224;-74
2021/09/17 11:47:29;;;;;;;0.10;0.10;;;17.30;99.90;;;;;;5113200;28;20230;-74
2021/09/17 11:49:57;;;;;;;0.40;0.20;;;17.10;99.90;;;;;;5115254;28;20341;-75
2021/09/17 11:52:24;;;;;;;0.13;0.10;;;17.10;99.90;;;;;;5115287;28;20253;-74
2021/09/17 11:54:58;;;;;;;0.20;0.20;;;17.00;99.90;;;;;;5114165;27;20514;-74
2021/09/17 11:57:29;;;;;;;0.40;0.20;;;17.00;99.90;;;;;;5111009;28;20257;-74
2021/09/17 11:59:56;;;;;;;0.10;0.10;;;17.10;99.90;;;;;;5112112;28;20202;-74
2021/09/17 12:02:25;;;;;;;0.47;0.13;;;17.10;99.90;;;;;;5121426;27;20690;-74
2021/09/17 12:04:56;;;;;;;0.40;0.40;;;17.10;99.90;;;;;;5116753;27;20229;-75
2021/09/17 12:07:23;;;;;;;0.27;0.27;;;17.10;99.90;;;;;;5116142;27;20291;-75
2021/09/17 12:09:50;;;;;;;0.20;0.20;;;17.20;99.90;;;;;;5119258;27;20224;-74
2021/09/17 12:12:16;;;;;;;0.50;0.30;;;17.20;99.90;;;;;;5121710;27;20206;-74
2021/09/17 12:14:50;;;;;;;0.20;0.20;;;17.20;99.90;;;;;;5115219;27;20279;-75
2021/09/17 12:17:16;;;;;;;1.83;0.20;;;17.10;99.90;;;;;;5118948;27;20186;-75
2021/09/17 12:19:59;;;;;;;0.13;0.13;;;17.10;99.90;;;;;;5118215;27;20201;-75
2021/09/17 12:22:34;;;;;;;1.77;0.20;;;17.10;99.90;;;;;;5114536;27;20221;-75
2021/09/17 12:25:06;;;;;;;0.10;0.10;;;16.90;99.90;;;;;;5116610;27;20202;-74
2021/09/17 12:27:33;;;;;;;0.10;0.00;;;16.90;99.90;;;;;;5120342;27;20225;-75
2021/09/17 12:30:01;;;;;;;3.30;0.20;;;16.80;99.90;;;;;;5117294;27;20202;-75
2021/09/17 12:32:28;;;;;;;0.47;0.10;;;16.70;99.90;;;;;;5116488;27;20201;-75
2021/09/17 12:35:09;;;;;;;0.40;0.30;;;16.80;99.90;;;;;;5119642;27;20208;-74
2021/09/17 12:37:36;;;;;;;0.30;0.10;;;16.80;99.90;;;;;;5129403;27;20225;-74
2021/09/17 12:40:17;;;;;;;0.70;0.10;;;16.70;99.90;;;;;;5128780;27;20212;-75
2021/09/17 12:42:45;;;;;;;0.67;0.20;;;16.80;99.90;;;;;;5128992;27;20197;-75
2021/09/17 12:45:12;;;;;;;0.27;0.17;;;17.00;99.90;;;;;;5127958;27;20695;-75
2021/09/17 12:47:50;;;;;;;0.47;0.20;;;17.00;99.90;;;;;;5128780;27;20341;-75
2021/09/17 12:50:18;;;;;;;0.20;0.20;;;17.00;99.90;;;;;;5128477;27;20244;-75
2021/09/17 12:52:46;;;;;;;2.20;0.27;;;16.90;99.90;;;;;;5125375;27;20259;-75
2021/09/17 12:55:24;;;;;;;0.53;0.10;;;16.90;99.90;;;;;;5118631;27;20824;-75